createdAt,value
2023-03-17T00:00:11.846Z,100787.28
2023-03-17T00:02:51.376Z,100786.53
2023-03-17T00:05:49.615Z,100802.69
2023-03-17T00:08:28.639Z,100801.16
2023-03-17T00:11:07.935Z,100783.44
2023-03-17T00:13:37.550Z,100801.38
2023-03-17T00:16:22.404Z,100804.69
2023-03-17T00:18:54.101Z,100802.53
2023-03-17T00:21:42.160Z,100816.44
2023-03-17T00:24:17.513Z,100841.41
2023-03-17T00:26:59.599Z,100838.44
2023-03-17T00:29:40.801Z,100835.25
2023-03-17T00:32:29.979Z,100810.31
2023-03-17T00:35:01.329Z,100833.88
2023-03-17T00:37:53.720Z,100841.50
2023-03-17T00:46:38.705Z,100791.19
2023-03-17T00:49:41.058Z,100796.91
2023-03-17T00:52:16.761Z,100816.31
2023-03-17T00:54:55.168Z,100787.31
2023-03-17T00:57:34.358Z,100816.31
2023-03-17T01:00:12.879Z,100806.84
2023-03-17T01:02:46.986Z,100789.66
2023-03-17T01:05:25.302Z,100763.34
2023-03-17T01:08:01.438Z,100785.13
2023-03-17T01:10:44.354Z,100766.22
2023-03-17T01:13:21.173Z,100758.75
2023-03-17T01:16:06.787Z,100760.41
2023-03-17T01:18:35.228Z,100737.28
2023-03-17T01:21:13.877Z,100737.56
2023-03-17T01:23:48.737Z,100730.16
2023-03-17T01:26:25.708Z,100749.13
2023-03-17T01:29:22.467Z,100752.75
2023-03-17T01:32:11.977Z,100788.59
2023-03-17T01:34:42.508Z,100752.69
2023-03-17T01:37:21.094Z,100732.28
2023-03-17T01:40:01.610Z,100745.56
2023-03-17T01:42:45.841Z,100745.78
2023-03-17T01:46:08.356Z,100760.75
2023-03-17T01:48:54.409Z,100750.25
2023-03-17T01:51:51.243Z,100741.38
2023-03-17T01:57:33.451Z,100741.25
2023-03-17T02:00:21.911Z,100728.72
2023-03-17T02:03:03.201Z,100705.06
2023-03-17T02:05:52.967Z,100697.31
2023-03-17T02:08:30.863Z,100739.31
2023-03-17T02:11:14.316Z,100738.47
2023-03-17T02:13:45.009Z,100706.22
2023-03-17T02:16:53.084Z,100733.50
2023-03-17T02:19:22.434Z,100727.34
2023-03-17T02:22:05.436Z,100706.00
2023-03-17T02:24:45.118Z,100729.97
2023-03-17T02:27:29.805Z,100717.13
2023-03-17T02:30:29.286Z,100725.06
2023-03-17T02:33:17.112Z,100696.34
2023-03-17T02:35:55.946Z,100719.34
2023-03-17T02:38:32.195Z,100700.13
2023-03-17T02:41:23.126Z,100696.06
2023-03-17T02:44:07.360Z,100703.16
2023-03-17T02:46:47.874Z,100715.91
2023-03-17T02:49:30.552Z,100698.72
2023-03-17T02:52:02.049Z,100704.34
2023-03-17T02:54:41.274Z,100716.41
2023-03-17T02:57:15.390Z,100678.19
2023-03-17T02:59:51.189Z,100720.22
2023-03-17T03:02:20.455Z,100694.72
2023-03-17T03:04:59.011Z,100707.88
2023-03-17T03:07:40.032Z,100696.72
2023-03-17T03:10:20.134Z,100693.97
2023-03-17T03:12:50.094Z,100705.22
2023-03-17T03:15:28.761Z,100685.59
2023-03-17T03:18:03.458Z,100699.09
2023-03-17T03:20:48.769Z,100699.00
2023-03-17T03:23:32.716Z,100702.06
2023-03-17T03:26:13.189Z,100698.38
2023-03-17T03:28:51.981Z,100681.69
2023-03-17T03:31:44.504Z,100682.16
2023-03-17T03:34:34.055Z,100664.03
2023-03-17T03:37:11.968Z,100687.06
2023-03-17T03:39:42.836Z,100701.47
2023-03-17T03:42:20.944Z,100680.34
2023-03-17T03:44:57.221Z,100680.16
2023-03-17T03:47:44.080Z,100693.75
2023-03-17T03:50:17.408Z,100684.28
2023-03-17T03:52:53.047Z,100682.56
2023-03-17T03:55:37.859Z,100656.63
2023-03-17T03:58:21.063Z,100669.69
2023-03-17T04:00:58.543Z,100659.63
2023-03-17T04:03:32.496Z,100671.09
2023-03-17T04:08:35.242Z,100697.41
2023-03-17T04:11:15.692Z,100700.31
2023-03-17T04:14:05.379Z,100686.94
2023-03-17T04:19:26.463Z,100676.25
2023-03-17T04:25:17.134Z,100686.22
2023-03-17T04:28:00.371Z,100683.56
2023-03-17T04:30:47.068Z,100646.16
2023-03-17T04:33:26.106Z,100647.31
2023-03-17T04:36:11.596Z,100651.34
2023-03-17T04:38:53.220Z,100679.22
2023-03-17T04:44:12.249Z,100674.25
2023-03-17T04:46:52.878Z,100678.50
2023-03-17T04:49:34.875Z,100672.75
2023-03-17T04:52:31.477Z,100659.47
2023-03-17T04:55:16.456Z,100688.00
2023-03-17T04:57:54.251Z,100692.75
2023-03-17T05:00:24.826Z,100685.56
2023-03-17T05:03:02.016Z,100689.16
2023-03-17T05:05:41.763Z,100693.59
2023-03-17T05:08:17.389Z,100707.50
2023-03-17T05:10:56.352Z,100706.09
2023-03-17T05:13:32.455Z,100695.16
2023-03-17T05:16:11.214Z,100691.56
2023-03-17T05:18:43.200Z,100671.97
2023-03-17T05:21:19.781Z,100673.38
2023-03-17T05:23:56.597Z,100689.00
2023-03-17T05:26:36.170Z,100688.34
2023-03-17T05:29:18.493Z,100696.06
2023-03-17T05:31:58.604Z,100686.78
2023-03-17T05:34:33.925Z,100669.59
2023-03-17T05:37:12.419Z,100690.84
2023-03-17T05:39:57.786Z,100697.09
2023-03-17T05:42:52.393Z,100704.06
2023-03-17T05:45:38.975Z,100709.06
2023-03-17T05:48:16.563Z,100672.69
2023-03-17T05:50:45.314Z,100677.97
2023-03-17T05:53:20.046Z,100702.13
2023-03-17T05:56:00.385Z,100712.00
2023-03-17T05:58:36.726Z,100664.63
2023-03-17T06:01:08.614Z,100704.72
2023-03-17T06:03:51.488Z,100704.72
2023-03-17T06:06:26.231Z,100671.41
2023-03-17T06:09:05.861Z,100697.63
2023-03-17T06:11:38.620Z,100692.03
2023-03-17T06:14:17.061Z,100658.31
2023-03-17T06:16:44.862Z,100670.75
2023-03-17T06:19:19.030Z,100664.63
2023-03-17T06:21:46.012Z,100695.06
2023-03-17T06:24:20.302Z,100662.72
2023-03-17T06:26:54.129Z,100669.31
2023-03-17T06:29:35.092Z,100682.91
2023-03-17T06:32:17.284Z,100678.56
2023-03-17T06:34:53.264Z,100684.72
2023-03-17T06:37:21.418Z,100691.31
2023-03-17T06:39:48.776Z,100679.78
2023-03-17T06:42:22.117Z,100656.97
2023-03-17T06:44:52.472Z,100667.38
2023-03-17T06:47:26.200Z,100670.25
2023-03-17T06:50:13.418Z,100681.16
2023-03-17T06:52:54.081Z,100685.81
2023-03-17T06:55:21.735Z,100688.69
2023-03-17T06:57:55.265Z,100692.59
2023-03-17T07:00:23.259Z,100680.81
2023-03-17T07:02:57.110Z,100686.19
2023-03-17T07:05:24.284Z,100681.00
2023-03-17T07:07:51.240Z,100667.09
2023-03-17T07:10:25.227Z,100670.16
2023-03-17T07:12:59.118Z,100669.34
2023-03-17T07:15:26.227Z,100671.34
2023-03-17T07:17:59.056Z,100668.53
2023-03-17T07:20:33.064Z,100666.59
2023-03-17T07:23:00.982Z,100684.94
2023-03-17T07:25:35.106Z,100681.81
2023-03-17T07:28:03.381Z,100678.06
2023-03-17T07:30:44.397Z,100656.69
2023-03-17T07:33:11.605Z,100668.06
2023-03-17T07:35:45.225Z,100676.09
2023-03-17T07:38:12.214Z,100665.03
2023-03-17T07:40:46.374Z,100660.56
2023-03-17T07:43:24.663Z,100676.56
2023-03-17T07:46:03.550Z,100658.88
2023-03-17T07:48:33.765Z,100662.50
2023-03-17T07:51:07.141Z,100668.91
2023-03-17T07:53:41.173Z,100661.91
2023-03-17T07:56:16.380Z,100656.06
2023-03-17T07:58:52.715Z,100664.19
2023-03-17T08:01:25.534Z,100658.97
2023-03-17T08:04:00.438Z,100658.72
2023-03-17T08:06:47.869Z,100676.97
2023-03-17T08:13:04.401Z,100657.97
2023-03-17T08:15:51.453Z,100662.19
2023-03-17T08:18:28.233Z,100680.78
2023-03-17T08:21:03.174Z,100689.09
2023-03-17T08:24:04.699Z,100678.19
2023-03-17T08:26:35.380Z,100672.81
2023-03-17T08:32:14.413Z,100673.09
2023-03-17T08:35:04.615Z,100694.09
2023-03-17T08:37:40.305Z,100692.88
2023-03-17T08:40:47.296Z,100666.59
2023-03-17T08:43:23.908Z,100664.53
2023-03-17T08:45:59.494Z,100679.03
2023-03-17T08:54:37.675Z,100650.94
2023-03-17T08:57:20.024Z,100628.63
2023-03-17T09:00:30.928Z,100642.66
2023-03-17T09:06:13.077Z,100644.25
2023-03-17T09:09:07.065Z,100647.09
2023-03-17T09:11:45.689Z,100627.97
2023-03-17T09:14:57.686Z,100645.44
2023-03-17T09:17:49.369Z,100658.97
2023-03-17T09:20:39.175Z,100664.03
2023-03-17T09:26:11.779Z,100659.00
2023-03-17T09:29:12.025Z,100680.00
2023-03-17T09:31:47.656Z,100649.41
2023-03-17T09:34:27.218Z,100661.75
2023-03-17T09:37:15.526Z,100658.50
2023-03-17T09:40:11.252Z,100650.81
2023-03-17T09:43:25.821Z,100661.91
2023-03-17T09:47:00.780Z,100674.97
2023-03-17T09:50:19.920Z,100652.56
2023-03-17T09:53:00.072Z,100647.56
2023-03-17T09:55:40.022Z,100668.06
2023-03-17T09:58:34.407Z,100648.38
2023-03-17T10:01:42.652Z,100670.28
2023-03-17T10:10:39.283Z,100687.22
2023-03-17T10:27:11.982Z,100672.75
2023-03-17T10:30:03.096Z,100642.22
2023-03-17T10:32:45.699Z,100628.41
2023-03-17T10:35:32.918Z,100634.56
2023-03-17T10:38:24.446Z,100653.56
2023-03-17T10:41:28.572Z,100641.06
2023-03-17T10:44:13.627Z,100634.91
2023-03-17T10:47:01.655Z,100653.78
2023-03-17T10:49:51.917Z,100655.66
2023-03-17T10:52:38.645Z,100648.78
2023-03-17T10:55:31.220Z,100633.00
2023-03-17T10:58:18.719Z,100631.78
2023-03-17T11:01:27.469Z,100638.78
2023-03-17T11:04:12.430Z,100639.09
2023-03-17T11:06:53.113Z,100648.72
2023-03-17T11:09:39.507Z,100641.69
2023-03-17T11:12:44.503Z,100644.41
2023-03-17T11:18:29.005Z,100633.13
2023-03-17T11:21:18.607Z,100620.03
2023-03-17T11:24:21.453Z,100659.50
2023-03-17T11:27:47.121Z,100635.38
2023-03-17T11:30:47.561Z,100641.75
2023-03-17T11:34:02.986Z,100635.13
2023-03-17T11:36:58.695Z,100654.53
2023-03-17T11:40:12.280Z,100660.38
2023-03-17T11:42:59.789Z,100626.13
2023-03-17T11:46:24.375Z,100624.91
2023-03-17T11:49:36.337Z,100665.50
2023-03-17T11:52:30.283Z,100656.94
2023-03-17T11:55:48.793Z,100622.06
2023-03-17T11:58:47.191Z,100623.47
2023-03-17T12:01:36.238Z,100640.69
2023-03-17T12:04:43.509Z,100643.75
2023-03-17T12:07:59.608Z,100650.34
2023-03-17T12:10:52.791Z,100650.19
2023-03-17T12:14:17.262Z,100615.72
2023-03-17T12:17:14.252Z,100635.59
2023-03-17T12:20:30.982Z,100622.31
2023-03-17T12:23:37.429Z,100652.28
2023-03-17T12:26:35.577Z,100649.41
2023-03-17T12:29:58.738Z,100637.97
2023-03-17T12:33:36.753Z,100650.38
2023-03-17T12:36:14.870Z,100614.97
2023-03-17T12:38:53.216Z,100630.97
2023-03-17T12:41:45.611Z,100631.00
2023-03-17T12:44:25.720Z,100602.28
2023-03-17T12:47:05.818Z,100612.03
2023-03-17T12:50:39.988Z,100597.16
2023-03-17T12:53:28.791Z,100600.31
2023-03-17T12:56:31.924Z,100583.63
2023-03-17T12:59:06.192Z,100593.63
2023-03-17T13:01:46.655Z,100563.22
2023-03-17T13:04:22.210Z,100584.28
2023-03-17T13:07:30.732Z,100582.41
2023-03-17T13:09:58.007Z,100593.13
2023-03-17T13:13:12.385Z,100606.84
2023-03-17T13:15:40.147Z,100609.78
2023-03-17T13:18:22.990Z,100613.53
2023-03-17T13:21:23.183Z,100612.06
2023-03-17T13:24:30.508Z,100597.50
2023-03-17T13:27:06.290Z,100607.44
2023-03-17T13:29:39.379Z,100576.13
2023-03-17T13:32:31.576Z,100605.28
2023-03-17T13:35:18.993Z,100590.53
2023-03-17T13:38:30.493Z,100608.13
2023-03-17T13:41:09.158Z,100597.78
2023-03-17T13:44:10.335Z,100597.97
2023-03-17T13:46:50.297Z,100589.03
2023-03-17T13:49:20.215Z,100602.31
2023-03-17T13:52:19.463Z,100614.03
2023-03-17T13:54:59.085Z,100600.19
2023-03-17T13:57:33.526Z,100586.63
2023-03-17T14:00:03.091Z,100587.19
2023-03-17T14:02:49.508Z,100578.09
2023-03-17T14:05:38.389Z,100563.31
2023-03-17T14:08:12.035Z,100587.69
2023-03-17T14:10:45.485Z,100580.13
2023-03-17T14:13:25.936Z,100574.69
2023-03-17T14:16:33.688Z,100587.97
2023-03-17T14:19:17.961Z,100584.09
2023-03-17T14:21:51.755Z,100570.22
2023-03-17T14:24:24.818Z,100569.06
2023-03-17T14:27:15.676Z,100566.81
2023-03-17T14:29:43.774Z,100567.50
2023-03-17T14:32:26.552Z,100579.09
2023-03-17T14:34:59.171Z,100557.28
2023-03-17T14:37:35.582Z,100561.53
2023-03-17T14:40:02.781Z,100558.72
2023-03-17T14:42:38.520Z,100554.34
2023-03-17T14:45:09.573Z,100559.41
2023-03-17T14:47:50.836Z,100555.03
2023-03-17T14:50:35.816Z,100531.81
2023-03-17T14:53:16.526Z,100544.94
2023-03-17T14:55:44.767Z,100516.53
2023-03-17T14:58:38.810Z,100558.38
2023-03-17T15:04:07.139Z,100555.03
2023-03-17T15:06:55.385Z,100532.31
2023-03-17T15:09:41.722Z,100533.19
2023-03-17T15:12:18.211Z,100532.19
2023-03-17T15:14:53.667Z,100553.19
2023-03-17T15:17:31.240Z,100550.47
2023-03-17T15:20:13.099Z,100545.25
2023-03-17T15:22:45.270Z,100525.94
2023-03-17T15:25:45.974Z,100546.63
2023-03-17T15:28:33.594Z,100524.22
2023-03-17T15:31:20.870Z,100551.28
2023-03-17T15:33:54.744Z,100514.97
2023-03-17T15:36:32.162Z,100523.53
2023-03-17T15:39:08.714Z,100544.72
2023-03-17T15:41:45.883Z,100536.16
2023-03-17T15:44:13.902Z,100560.88
2023-03-17T15:46:48.690Z,100541.50
2023-03-17T15:49:23.158Z,100543.19
2023-03-17T15:51:58.958Z,100530.06
2023-03-17T15:54:33.888Z,100523.66
2023-03-17T15:57:02.036Z,100523.31
2023-03-17T15:59:36.076Z,100544.84
2023-03-17T16:02:39.273Z,100520.47
2023-03-17T16:05:30.100Z,100538.44
2023-03-17T16:08:01.027Z,100524.66
2023-03-17T16:10:46.103Z,100541.13
2023-03-17T16:13:14.209Z,100503.25
2023-03-17T16:15:56.713Z,100524.13
2023-03-17T16:18:47.959Z,100532.19
2023-03-17T16:21:25.699Z,100516.66
2023-03-17T16:30:31.756Z,100495.63
2023-03-17T16:34:21.132Z,100538.66
2023-03-17T16:40:06.053Z,100544.31
2023-03-17T16:42:42.351Z,100522.59
2023-03-17T16:45:18.961Z,100549.50
2023-03-17T16:48:13.739Z,100544.59
2023-03-17T16:50:52.155Z,100517.13
2023-03-17T16:53:40.608Z,100538.97
2023-03-17T16:56:35.078Z,100553.06
2023-03-17T16:59:21.254Z,100536.56
2023-03-17T17:02:24.536Z,100534.69
2023-03-17T17:05:23.787Z,100526.88
2023-03-17T17:08:02.273Z,100553.09
2023-03-17T17:10:36.327Z,100536.25
2023-03-17T17:13:16.646Z,100540.44
2023-03-17T17:15:53.149Z,100560.72
2023-03-17T17:18:37.731Z,100552.00
2023-03-17T17:21:16.649Z,100564.91
2023-03-17T17:23:47.359Z,100566.50
2023-03-17T17:26:40.162Z,100543.91
2023-03-17T17:29:54.258Z,100582.91
2023-03-17T17:32:31.793Z,100545.75
2023-03-17T17:35:09.026Z,100543.97
2023-03-17T17:38:01.906Z,100541.19
2023-03-17T17:40:47.120Z,100543.09
2023-03-17T17:43:38.582Z,100550.06
2023-03-17T17:46:30.525Z,100542.84
2023-03-17T17:49:14.710Z,100561.59
2023-03-17T17:51:50.993Z,100553.94
2023-03-17T17:54:33.827Z,100565.19
2023-03-17T17:57:48.021Z,100551.06
2023-03-17T18:00:24.462Z,100546.84
2023-03-17T18:03:13.229Z,100543.78
2023-03-17T18:05:50.705Z,100550.84
2023-03-17T18:08:27.674Z,100557.63
2023-03-17T18:11:02.016Z,100587.84
2023-03-17T18:13:45.131Z,100547.94
2023-03-17T18:16:22.154Z,100554.44
2023-03-17T18:19:06.061Z,100578.31
2023-03-17T18:22:00.191Z,100549.66
2023-03-17T18:24:35.164Z,100556.56
2023-03-17T18:27:11.473Z,100541.09
2023-03-17T18:30:14.404Z,100539.41
2023-03-17T18:33:06.589Z,100571.03
2023-03-17T18:36:08.159Z,100562.63
2023-03-17T18:38:42.229Z,100569.22
2023-03-17T18:41:24.924Z,100538.84
2023-03-17T18:44:07.337Z,100536.47
2023-03-17T18:46:44.396Z,100525.47
2023-03-17T18:49:22.939Z,100543.06
2023-03-17T18:52:08.983Z,100570.38
2023-03-17T18:54:43.189Z,100542.34
2023-03-17T18:57:30.162Z,100542.50
2023-03-17T19:02:52.370Z,100564.16
2023-03-17T19:05:51.617Z,100576.25
2023-03-17T19:08:33.026Z,100581.84
2023-03-17T19:11:05.433Z,100582.00
2023-03-17T19:13:44.241Z,100578.34
2023-03-17T19:16:18.538Z,100541.47
2023-03-17T19:18:59.013Z,100566.69
2023-03-17T19:21:40.240Z,100543.19
2023-03-17T19:24:25.577Z,100561.66
2023-03-17T19:26:56.634Z,100558.63
2023-03-17T19:29:52.536Z,100578.97
2023-03-17T19:32:31.260Z,100576.97
2023-03-17T19:35:10.298Z,100577.94
2023-03-17T19:37:44.035Z,100579.75
2023-03-17T19:40:24.837Z,100565.91
2023-03-17T19:43:09.300Z,100566.13
2023-03-17T19:48:43.345Z,100542.09
2023-03-17T19:54:25.086Z,100522.81
2023-03-17T19:57:10.374Z,100523.63
2023-03-17T19:59:43.215Z,100525.34
2023-03-17T20:02:44.377Z,100559.34
2023-03-17T20:05:32.928Z,100528.44
2023-03-17T20:08:12.633Z,100537.72
2023-03-17T20:11:07.118Z,100534.34
2023-03-17T20:13:45.275Z,100528.31
2023-03-17T20:16:30.101Z,100570.38
2023-03-17T20:19:09.548Z,100543.38
2023-03-17T20:21:58.941Z,100536.38
2023-03-17T20:24:46.665Z,100535.84
2023-03-17T20:27:19.306Z,100567.47
2023-03-17T20:30:01.805Z,100573.16
2023-03-17T20:32:50.464Z,100566.53
2023-03-17T20:35:44.225Z,100544.63
2023-03-17T20:38:24.918Z,100534.09
2023-03-17T20:41:25.080Z,100537.63
2023-03-17T20:44:05.170Z,100573.63
2023-03-17T20:46:38.051Z,100568.16
2023-03-17T20:49:19.477Z,100551.41
2023-03-17T20:51:54.204Z,100548.19
2023-03-17T20:54:30.345Z,100561.56
2023-03-17T20:57:05.054Z,100579.44
2023-03-17T20:59:47.894Z,100553.84
2023-03-17T21:02:39.342Z,100556.09
2023-03-17T21:05:32.805Z,100571.25
2023-03-17T21:08:06.118Z,100575.50
2023-03-17T21:11:04.271Z,100579.88
2023-03-17T21:13:37.143Z,100561.06
2023-03-17T21:16:29.234Z,100598.59
2023-03-17T21:19:00.650Z,100587.50
2023-03-17T21:21:35.066Z,100568.22
2023-03-17T21:27:03.944Z,100583.97
2023-03-17T21:29:43.092Z,100562.47
2023-03-17T21:32:35.398Z,100548.09
2023-03-17T21:35:24.093Z,100595.06
2023-03-17T21:38:00.899Z,100556.66
2023-03-17T21:40:54.901Z,100562.03
2023-03-17T21:43:36.238Z,100597.59
2023-03-17T21:46:07.175Z,100599.28
2023-03-17T21:49:08.175Z,100567.22
2023-03-17T21:51:42.469Z,100569.75
2023-03-17T21:54:23.817Z,100573.13
2023-03-17T21:56:56.442Z,100583.69
2023-03-17T21:59:49.510Z,100585.66
2023-03-17T22:02:23.594Z,100585.84
2023-03-17T22:05:08.898Z,100604.81
2023-03-17T22:07:41.166Z,100607.75
2023-03-17T22:10:19.493Z,100610.44
2023-03-17T22:13:08.248Z,100579.38
2023-03-17T22:18:34.474Z,100579.63
2023-03-17T22:21:08.904Z,100589.50
2023-03-17T22:23:50.007Z,100581.59
2023-03-17T22:26:33.095Z,100593.56
2023-03-17T22:29:22.159Z,100598.50
2023-03-17T22:32:10.235Z,100594.69
2023-03-17T22:34:56.008Z,100605.53
2023-03-17T22:37:44.434Z,100587.66
2023-03-17T22:40:49.370Z,100622.53
2023-03-17T22:43:31.066Z,100599.63
2023-03-17T22:49:24.831Z,100607.09
2023-03-17T22:52:03.481Z,100602.56
2023-03-17T22:54:47.922Z,100620.28
2023-03-17T23:00:35.513Z,100601.75
2023-03-17T23:06:20.886Z,100581.47
2023-03-17T23:08:59.812Z,100586.97
2023-03-17T23:11:45.024Z,100620.03
2023-03-17T23:14:21.376Z,100596.09
2023-03-17T23:16:58.716Z,100586.53
2023-03-17T23:19:44.956Z,100588.50
2023-03-17T23:22:16.803Z,100591.19
2023-03-17T23:25:02.765Z,100617.91
2023-03-17T23:27:46.322Z,100594.00
2023-03-17T23:30:36.679Z,100604.97
2023-03-17T23:33:30.629Z,100596.81
2023-03-17T23:36:26.042Z,100633.53
2023-03-17T23:38:57.468Z,100639.72
2023-03-17T23:41:37.324Z,100646.06
2023-03-17T23:44:09.258Z,100630.97
2023-03-17T23:46:48.628Z,100616.78
2023-03-17T23:49:31.646Z,100650.72
2023-03-17T23:52:19.363Z,100609.03
2023-03-17T23:55:01.749Z,100660.41
2023-03-17T23:58:06.688Z,100623.25
